Time;durP1;ratioP1;P1;durP2;ratioP2;P2;SDS_P1;SDS_P2;PMS_P1;PMS_P2;Temp;Humidity;BMP_temperature;BMP_pressure;BME280_temperature;BME280_humidity;BME280_pressure;Samples;Min_cycle;Max_cycle;Signal;HPM_P1;HPM_P2
2023/07/15 09:54:57;;;;;;;9.85;5.70;;;30.20;79.20;;;;;;5964449;23;20064;31
2023/07/15 09:57:24;;;;;;;19.15;7.65;;;30.30;80.90;;;;;;4810565;29;20553;-77
2023/07/15 09:59:52;;;;;;;;;;;30.30;79.90;;;;;;4829464;29;20061;-77
2023/07/15 10:02:45;;;;;;;13.63;6.45;;;30.40;79.20;;;;;;4828935;29;19919;-78
2023/07/15 10:05:14;;;;;;;13.18;6.25;;;30.50;79.10;;;;;;4825376;29;20083;-77
2023/07/15 10:07:43;;;;;;;10.88;6.65;;;30.60;78.80;;;;;;4850527;23;20075;-85
2023/07/15 10:10:09;;;;;;;16.00;6.00;;;30.60;78.70;;;;;;4825747;29;20125;-85
2023/07/15 10:12:36;;;;;;;14.80;5.90;;;30.70;80.40;;;;;;4826965;29;20384;-85
2023/07/15 10:15:02;;;;;;;8.98;5.30;;;30.90;80.10;;;;;;4827021;29;20046;-85
2023/07/15 10:17:38;;;;;;;;;;;31.00;78.70;;;;;;4812425;29;20033;-85
2023/07/15 10:20:12;;;;;;;18.65;5.50;;;31.20;78.10;;;;;;4808878;29;20378;-85
2023/07/15 10:22:40;;;;;;;10.63;5.97;;;31.40;76.30;;;;;;4823768;29;20078;-86
2023/07/15 10:25:09;;;;;;;9.52;5.63;;;31.60;74.60;;;;;;4794148;29;20038;-83
2023/07/15 10:27:35;;;;;;;10.27;5.32;;;31.60;74.30;;;;;;4809348;29;20031;-84
2023/07/15 10:30:23;;;;;;;10.93;5.20;;;31.70;73.50;;;;;;4825956;29;20035;-84
2023/07/15 10:33:01;;;;;;;11.55;4.72;;;31.70;72.90;;;;;;4825756;29;20053;-83
2023/07/15 10:35:27;;;;;;;5.82;4.05;;;31.80;74.00;;;;;;4809564;29;20030;-82
2023/07/15 10:37:53;;;;;;;9.82;3.80;;;32.00;73.30;;;;;;4809693;29;20534;-82
2023/07/15 10:40:38;;;;;;;;;;;32.20;72.90;;;;;;4811209;29;20058;-84
2023/07/15 10:43:07;;;;;;;12.82;3.90;;;32.30;70.20;;;;;;4825556;29;19919;-82
2023/07/15 10:45:42;;;;;;;7.40;3.85;;;32.30;70.20;;;;;;4809074;29;20026;-82
2023/07/15 10:48:11;;;;;;;8.63;4.10;;;32.30;70.20;;;;;;4826089;29;20081;-83
2023/07/15 10:50:38;;;;;;;11.57;4.72;;;32.40;71.40;;;;;;4824943;29;20404;-83
2023/07/15 10:53:30;;;;;;;7.25;4.05;;;32.60;71.10;;;;;;4808938;29;20396;-83
2023/07/15 10:55:59;;;;;;;11.48;3.90;;;32.90;70.70;;;;;;4807934;29;20042;-82
2023/07/15 10:58:26;;;;;;;9.52;4.15;;;33.00;69.10;;;;;;4808347;29;20030;-83
2023/07/15 11:01:01;;;;;;;12.00;4.80;;;32.90;69.30;;;;;;4823804;29;20040;-83
2023/07/15 11:03:31;;;;;;;8.32;4.43;;;32.90;68.10;;;;;;4831849;29;20041;-82
2023/07/15 11:05:58;;;;;;;8.35;4.00;;;32.70;69.00;;;;;;4809763;29;20038;-82
2023/07/15 11:08:25;;;;;;;9.52;4.10;;;32.70;70.40;;;;;;4808067;29;20122;-82
2023/07/15 11:11:05;;;;;;;7.10;4.38;;;32.80;69.00;;;;;;4823840;29;20062;-83
2023/07/15 11:13:34;;;;;;;11.98;4.43;;;33.00;69.50;;;;;;4825060;29;20042;-82
2023/07/15 11:16:00;;;;;;;9.18;4.22;;;33.20;68.20;;;;;;4823917;29;20109;-84
2023/07/15 11:18:27;;;;;;;20.73;5.50;;;33.20;66.80;;;;;;4806324;29;20613;-82
2023/07/15 11:20:57;;;;;;;9.80;3.83;;;33.30;67.00;;;;;;4811512;29;20107;-83
2023/07/15 11:23:23;;;;;;;10.07;4.30;;;33.40;67.00;;;;;;4809168;29;20030;-83
2023/07/15 11:25:49;;;;;;;7.32;4.15;;;33.40;66.60;;;;;;4826774;29;20074;-82
2023/07/15 11:28:17;;;;;;;9.52;4.03;;;33.50;67.00;;;;;;4812169;29;20389;-81
2023/07/15 11:30:45;;;;;;;10.23;4.22;;;33.70;66.60;;;;;;4811781;29;20487;-82
2023/07/15 11:33:12;;;;;;;6.05;3.60;;;33.80;65.30;;;;;;4809951;29;20133;-82
2023/07/15 11:35:41;;;;;;;8.93;3.50;;;33.70;64.70;;;;;;4811527;29;20050;-82
2023/07/15 11:38:10;;;;;;;8.57;4.00;;;33.70;65.50;;;;;;4797451;29;20400;-82
2023/07/15 11:40:37;;;;;;;11.32;5.07;;;33.80;64.60;;;;;;4812212;29;20027;-82
2023/07/15 11:43:06;;;;;;;11.10;4.40;;;33.80;64.50;;;;;;4811667;29;20628;-82
2023/07/15 11:45:33;;;;;;;13.85;4.25;;;33.90;66.00;;;;;;4811743;29;20110;-82
2023/07/15 11:47:59;;;;;;;9.35;5.47;;;34.10;66.00;;;;;;4810899;29;20499;-82
2023/07/15 11:50:28;;;;;;;6.97;4.00;;;34.30;64.70;;;;;;4795380;29;20074;-82
2023/07/15 11:52:56;;;;;;;9.25;4.28;;;34.20;66.40;;;;;;4826050;29;20070;-82
2023/07/15 11:55:26;;;;;;;10.50;4.40;;;34.30;64.20;;;;;;4809847;29;20034;-81
2023/07/15 11:57:53;;;;;;;9.65;4.65;;;34.50;63.60;;;;;;4827035;29;20030;-81
2023/07/15 12:00:34;;;;;;;13.30;4.72;;;34.70;63.80;;;;;;4828856;29;20186;-82
2023/07/15 12:03:09;;;;;;;10.18;5.40;;;34.80;63.20;;;;;;4814404;29;20034;-81
2023/07/15 12:05:38;;;;;;;10.07;5.35;;;34.90;63.10;;;;;;4832448;29;20030;-82
2023/07/15 12:08:12;;;;;;;11.68;4.80;;;34.90;62.50;;;;;;4815455;29;20034;-81
2023/07/15 12:10:53;;;;;;;10.88;5.25;;;35.00;62.50;;;;;;4815971;29;20049;-80
2023/07/15 12:13:19;;;;;;;10.18;4.75;;;35.20;61.90;;;;;;4815582;29;20073;-81
2023/07/15 12:15:45;;;;;;;8.50;4.30;;;35.20;62.10;;;;;;4832222;29;20030;-82
2023/07/15 12:18:12;;;;;;;13.45;5.18;;;35.30;61.50;;;;;;4815243;29;20150;-82
2023/07/15 12:20:37;;;;;;;9.30;4.40;;;35.40;60.60;;;;;;4830442;29;20038;-82
2023/07/15 12:23:03;;;;;;;10.85;5.10;;;35.50;61.20;;;;;;4830758;29;20038;-82
2023/07/15 12:25:29;;;;;;;10.40;5.03;;;35.60;60.90;;;;;;4829403;29;20154;-82
2023/07/15 12:27:55;;;;;;;6.93;4.10;;;35.80;60.90;;;;;;4810833;29;20507;-82
2023/07/15 12:30:21;;;;;;;15.52;4.15;;;36.00;58.90;;;;;;4829465;29;20031;-82
2023/07/15 12:32:47;;;;;;;10.07;4.10;;;36.00;58.60;;;;;;4830875;29;20441;-82
2023/07/15 12:35:13;;;;;;;11.77;4.65;;;36.20;59.30;;;;;;4829756;29;20056;-82
2023/07/15 12:37:39;;;;;;;7.50;3.92;;;36.20;58.20;;;;;;4829091;29;20539;-83
2023/07/15 12:40:09;;;;;;;9.20;4.57;;;36.20;56.80;;;;;;4794168;29;20126;-82
2023/07/15 12:42:35;;;;;;;8.73;4.28;;;36.30;56.10;;;;;;4809577;29;20086;-82
2023/07/15 12:45:02;;;;;;;7.35;4.28;;;36.20;56.20;;;;;;4793844;29;20434;-82
2023/07/15 12:47:28;;;;;;;15.02;4.88;;;36.00;57.30;;;;;;4825447;29;20100;-82
2023/07/15 12:49:54;;;;;;;8.70;3.70;;;36.00;58.10;;;;;;4810470;29;20030;-82
2023/07/15 12:52:19;;;;;;;9.27;4.68;;;36.10;58.20;;;;;;4809166;29;20041;-82
2023/07/15 12:54:45;;;;;;;7.00;4.65;;;36.20;58.40;;;;;;4810564;29;20030;-82
2023/07/15 12:57:11;;;;;;;7.93;4.85;;;36.40;57.90;;;;;;4794479;29;20058;-83
2023/07/15 12:59:37;;;;;;;13.75;4.47;;;36.50;57.30;;;;;;4811124;29;20056;-82
2023/07/15 13:02:04;;;;;;;12.63;4.65;;;36.60;55.10;;;;;;4827252;29;20051;-87
2023/07/15 13:04:31;;;;;;;9.10;4.28;;;36.50;55.10;;;;;;4809381;29;20030;-81
2023/07/15 13:06:57;;;;;;;11.90;4.35;;;36.50;56.00;;;;;;4827497;29;20515;-82
2023/07/15 13:09:23;;;;;;;10.32;4.40;;;36.50;56.50;;;;;;4794716;29;20042;-82
2023/07/15 13:11:52;;;;;;;6.25;3.97;;;36.50;56.40;;;;;;4794764;29;20034;-82
2023/07/15 13:14:17;;;;;;;10.57;4.70;;;36.70;55.40;;;;;;4825571;29;20078;-82
2023/07/15 13:16:43;;;;;;;9.27;4.18;;;36.80;56.10;;;;;;4808598;29;20125;-82
2023/07/15 13:19:09;;;;;;;6.30;4.25;;;37.30;56.20;;;;;;4808367;29;20397;-82
2023/07/15 13:21:35;;;;;;;9.05;4.75;;;37.90;54.50;;;;;;4807781;29;20038;-82
2023/07/15 13:24:10;;;;;;;5.57;3.88;;;38.70;53.20;;;;;;4824659;29;20030;-82
2023/07/15 13:26:36;;;;;;;10.75;4.03;;;39.70;52.50;;;;;;4807326;29;20034;-83
2023/07/15 13:29:03;;;;;;;;;;;40.70;50.30;;;;;;4808390;29;20030;-83
2023/07/15 13:31:28;;;;;;;6.95;3.78;;;41.50;48.10;;;;;;4807666;29;19917;-82
2023/07/15 13:33:54;;;;;;;11.07;4.00;;;41.90;46.10;;;;;;4806520;29;20045;-83
2023/07/15 13:36:20;;;;;;;7.25;3.92;;;42.50;45.50;;;;;;4827002;29;20396;-82
2023/07/15 13:38:47;;;;;;;11.40;4.35;;;43.10;44.70;;;;;;4829535;29;20047;-82
2023/07/15 13:41:13;;;;;;;8.57;4.15;;;43.70;43.60;;;;;;4831430;29;20035;-82
2023/07/15 13:43:44;;;;;;;6.47;3.88;;;44.30;42.90;;;;;;4813174;29;20031;-82
2023/07/15 13:46:12;;;;;;;9.05;4.32;;;44.60;42.30;;;;;;4825778;29;20526;-83
2023/07/15 13:48:38;;;;;;;8.63;4.43;;;45.10;41.00;;;;;;4811737;29;20204;-82
2023/07/15 13:51:04;;;;;;;6.55;3.92;;;45.60;40.80;;;;;;4810278;29;20086;-82
2023/07/15 13:53:30;;;;;;;8.93;3.63;;;45.70;40.70;;;;;;4794627;29;20105;-83
2023/07/15 13:55:56;;;;;;;22.10;6.75;;;46.20;40.30;;;;;;4809589;29;20546;-82
2023/07/15 13:58:22;;;;;;;8.75;4.47;;;46.70;39.50;;;;;;4809083;29;20179;-82
2023/07/15 14:00:48;;;;;;;7.80;3.75;;;47.20;39.00;;;;;;4825449;29;20540;-83
2023/07/15 14:03:14;;;;;;;10.43;4.75;;;47.60;38.80;;;;;;4811389;29;20046;-82
2023/07/15 14:05:39;;;;;;;8.20;3.95;;;47.70;38.20;;;;;;4828658;29;20042;-82
2023/07/15 14:08:05;;;;;;;6.88;4.32;;;47.90;37.60;;;;;;4825190;29;20035;-81
2023/07/15 14:10:31;;;;;;;12.45;4.05;;;48.00;37.90;;;;;;4793969;29;20034;-82
2023/07/15 14:12:57;;;;;;;6.75;4.28;;;48.20;38.40;;;;;;4825342;29;20118;-82
2023/07/15 14:15:23;;;;;;;9.10;4.45;;;48.40;37.90;;;;;;4809093;29;20488;-81
2023/07/15 14:17:48;;;;;;;8.80;4.28;;;48.60;38.00;;;;;;4825082;29;20070;-84
2023/07/15 14:20:15;;;;;;;6.82;3.95;;;47.70;38.30;;;;;;4808983;29;20129;-81
2023/07/15 14:22:41;;;;;;;8.75;4.60;;;47.90;39.20;;;;;;4809029;29;20126;-81
2023/07/15 14:25:08;;;;;;;7.43;3.88;;;48.60;38.60;;;;;;4808998;29;20054;-81
2023/07/15 14:27:34;;;;;;;5.95;4.50;;;49.00;37.60;;;;;;4808858;29;20519;-81
2023/07/15 14:30:00;;;;;;;6.95;4.00;;;49.10;36.50;;;;;;4808924;29;20042;-81
2023/07/15 14:32:26;;;;;;;9.52;3.63;;;49.10;36.50;;;;;;4808991;29;20129;-81
2023/07/15 14:34:51;;;;;;;12.98;4.07;;;48.20;36.90;;;;;;4808972;29;20133;-80
2023/07/15 14:37:17;;;;;;;10.60;4.03;;;47.90;38.20;;;;;;4825788;29;20029;-80
2023/07/15 14:39:43;;;;;;;8.18;3.80;;;48.00;38.30;;;;;;4809147;29;20062;-81
2023/07/15 14:42:09;;;;;;;5.93;4.20;;;47.90;38.80;;;;;;4825415;29;20079;-81
2023/07/15 14:44:35;;;;;;;6.72;4.40;;;48.20;38.80;;;;;;4824613;29;20030;-81
2023/07/15 14:47:00;;;;;;;10.75;4.55;;;48.50;37.90;;;;;;4807436;29;20023;-81
2023/07/15 14:49:26;;;;;;;7.95;4.70;;;48.50;37.60;;;;;;4807993;29;20504;-81
2023/07/15 14:51:52;;;;;;;8.23;4.63;;;48.50;37.10;;;;;;4824283;29;20059;-81
2023/07/15 14:54:18;;;;;;;10.75;4.65;;;48.80;37.50;;;;;;4808602;29;20038;-81
2023/07/15 14:56:44;;;;;;;9.27;4.30;;;48.70;36.80;;;;;;4824682;29;20396;-81
2023/07/15 14:59:10;;;;;;;10.05;3.95;;;48.40;36.80;;;;;;4824678;29;20038;-81
2023/07/15 15:01:35;;;;;;;6.25;3.92;;;47.90;37.30;;;;;;4824642;29;20030;-80
2023/07/15 15:04:01;;;;;;;10.85;4.32;;;47.10;37.70;;;;;;4808406;29;20033;-81
2023/07/15 15:06:28;;;;;;;29.40;5.00;;;46.20;38.00;;;;;;4824673;29;20030;-80
2023/07/15 15:08:53;;;;;;;7.18;3.60;;;45.30;40.30;;;;;;4824392;29;20042;-81
2023/07/15 15:11:22;;;;;;;11.15;3.85;;;44.30;40.60;;;;;;4808149;29;20043;-81
2023/07/15 15:13:49;;;;;;;7.07;3.95;;;43.80;41.90;;;;;;4808223;29;20125;-81
2023/07/15 15:16:15;;;;;;;6.43;3.35;;;43.20;43.20;;;;;;4824455;29;20085;-81
2023/07/15 15:18:45;;;;;;;6.95;4.10;;;42.80;44.20;;;;;;4824230;29;20045;-81
2023/07/15 15:21:12;;;;;;;7.57;3.75;;;42.50;44.50;;;;;;4824618;29;20046;-81
2023/07/15 15:23:39;;;;;;;6.63;3.50;;;42.20;44.50;;;;;;4816652;29;20086;-84
2023/07/15 15:26:05;;;;;;;105.20;9.68;;;42.00;45.00;;;;;;4806176;29;20100;-84
2023/07/15 15:28:31;;;;;;;13.27;3.70;;;41.90;45.60;;;;;;4774882;29;20582;-87
2023/07/15 15:30:57;;;;;;;8.32;4.05;;;41.70;45.30;;;;;;4789721;29;20039;-86
2023/07/15 15:33:23;;;;;;;14.82;4.47;;;41.50;45.70;;;;;;4789767;29;20057;-86
2023/07/15 15:35:48;;;;;;;8.18;4.15;;;41.10;45.90;;;;;;4789536;29;20035;-84
2023/07/15 15:38:14;;;;;;;6.90;4.10;;;40.90;45.30;;;;;;4805815;29;20079;-83
2023/07/15 15:40:40;;;;;;;7.05;4.72;;;40.60;46.60;;;;;;4789916;29;20067;-83
2023/07/15 15:43:06;;;;;;;9.77;4.10;;;40.50;46.20;;;;;;4789727;29;20035;-83
2023/07/15 15:45:32;;;;;;;8.50;4.30;;;40.50;46.40;;;;;;4806064;29;20370;-83
2023/07/15 15:47:58;;;;;;;10.20;4.97;;;40.50;46.80;;;;;;4774709;29;20543;-83
2023/07/15 15:50:23;;;;;;;9.77;4.18;;;40.40;46.30;;;;;;4805915;29;20030;-82
2023/07/15 15:52:49;;;;;;;13.23;4.60;;;40.40;46.90;;;;;;4789790;29;20035;-83
2023/07/15 15:55:16;;;;;;;9.57;4.53;;;40.40;47.30;;;;;;4789620;29;20596;-83
2023/07/15 15:57:42;;;;;;;7.32;4.03;;;40.10;46.70;;;;;;4789752;29;20026;-83
2023/07/15 16:00:10;;;;;;;9.38;4.03;;;40.00;47.00;;;;;;4774859;29;20031;-83
2023/07/15 16:02:38;;;;;;;9.55;3.75;;;39.80;46.70;;;;;;4789474;29;20042;-83
2023/07/15 16:05:04;;;;;;;11.05;4.28;;;39.70;48.20;;;;;;4774608;29;20408;-83
2023/07/15 16:07:30;;;;;;;9.65;4.43;;;39.70;48.10;;;;;;4804666;29;20035;-83
2023/07/15 16:09:56;;;;;;;10.57;3.70;;;39.60;47.70;;;;;;4805732;29;20047;-83
2023/07/15 16:12:22;;;;;;;8.25;4.28;;;39.60;48.30;;;;;;4812400;29;20068;-84
2023/07/15 16:14:48;;;;;;;;;;;39.50;48.30;;;;;;4797876;29;20043;-83
2023/07/15 16:17:14;;;;;;;6.63;4.18;;;39.40;49.60;;;;;;4812668;29;19970;-84
2023/07/15 16:41:15;;;;;;;7.90;4.20;;;38.60;49.00;;;;;;4916269;23;20054;-80
2023/07/15 16:43:41;;;;;;;;;;;38.50;48.80;;;;;;4843206;29;20029;-80
2023/07/15 16:46:06;;;;;;;15.07;4.53;;;38.40;50.80;;;;;;4844550;29;20510;-80
2023/07/15 16:48:32;;;;;;;;;;;38.40;50.70;;;;;;4845133;29;20053;-80
2023/07/15 16:50:58;;;;;;;6.90;3.78;;;38.20;50.80;;;;;;4844368;29;19912;-81
2023/07/15 16:55:50;;;;;;;9.77;5.13;;;38.00;52.10;;;;;;4818492;29;19978;-85
2023/07/15 16:58:17;;;;;;;;;;;37.90;52.20;;;;;;4806556;29;20038;-85
2023/07/15 17:00:43;;;;;;;11.18;4.70;;;37.90;53.60;;;;;;4806380;29;20037;-85
2023/07/15 17:03:08;;;;;;;;;;;37.80;52.00;;;;;;4791850;29;20068;-85
2023/07/15 17:05:34;;;;;;;8.50;4.28;;;37.60;52.50;;;;;;4806314;29;19913;-85
2023/07/15 17:08:00;;;;;;;8.55;4.80;;;37.60;53.00;;;;;;4806889;29;20034;-85
2023/07/15 17:10:26;;;;;;;9.70;4.05;;;37.50;53.30;;;;;;4791470;29;20094;-85
2023/07/15 17:12:52;;;;;;;8.88;4.25;;;37.50;54.10;;;;;;4806466;29;20510;-85
2023/07/15 17:15:18;;;;;;;12.20;4.38;;;37.50;54.00;;;;;;4794673;29;20041;-85
2023/07/15 17:17:43;;;;;;;7.15;4.13;;;37.30;53.50;;;;;;4794684;29;20038;-85
2023/07/15 17:20:21;;;;;;;16.65;5.05;;;37.30;54.30;;;;;;4794968;29;20030;-85
2023/07/15 17:22:47;;;;;;;9.63;4.28;;;37.20;55.70;;;;;;4810073;29;20038;-85
2023/07/15 17:25:13;;;;;;;8.52;4.32;;;37.10;55.00;;;;;;4794762;29;20419;-85
2023/07/15 17:27:39;;;;;;;11.77;4.35;;;37.00;54.40;;;;;;4825960;29;20393;-85
2023/07/15 17:30:06;;;;;;;8.25;3.92;;;37.00;54.90;;;;;;4809821;29;20449;-85
2023/07/15 17:32:31;;;;;;;7.72;4.80;;;36.80;54.30;;;;;;4794620;29;20038;-85
2023/07/15 17:34:57;;;;;;;18.67;4.53;;;36.70;55.00;;;;;;4794459;29;20099;-85
2023/07/15 17:37:26;;;;;;;14.95;4.60;;;36.60;55.40;;;;;;4809782;29;20067;-85
2023/07/15 17:39:53;;;;;;;10.18;4.75;;;36.50;55.30;;;;;;4809786;29;20054;-83
2023/07/15 17:42:19;;;;;;;10.10;4.32;;;36.50;56.30;;;;;;4825938;29;20118;-83
2023/07/15 17:44:44;;;;;;;14.07;4.13;;;36.40;56.50;;;;;;4794937;29;20076;-83
2023/07/15 17:47:10;;;;;;;9.23;4.22;;;36.20;56.40;;;;;;4793663;29;20455;-82
2023/07/15 17:49:36;;;;;;;9.93;4.43;;;36.20;56.90;;;;;;4794767;29;20408;-84
2023/07/15 17:52:02;;;;;;;12.95;5.07;;;36.00;57.00;;;;;;4825926;29;20041;-84
2023/07/15 17:54:28;;;;;;;9.98;4.05;;;35.90;56.90;;;;;;4810059;29;20042;-84
2023/07/15 17:56:54;;;;;;;13.80;5.75;;;35.80;57.30;;;;;;4794254;29;20530;-80
2023/07/15 17:59:21;;;;;;;215.35;142.35;;;35.70;57.90;;;;;;4809973;29;20404;-83
2023/07/15 18:01:47;;;;;;;11.98;5.78;;;35.60;58.80;;;;;;4809032;29;20041;-85
2023/07/15 18:04:14;;;;;;;11.90;4.75;;;35.50;58.50;;;;;;4809024;29;20034;-85
2023/07/15 18:06:45;;;;;;;13.63;5.55;;;35.30;58.50;;;;;;4809553;29;20097;-84
2023/07/15 18:09:13;;;;;;;9.13;5.97;;;35.20;59.30;;;;;;4794471;29;20474;-84
2023/07/15 18:11:42;;;;;;;9.80;5.38;;;35.10;60.30;;;;;;4826357;29;20171;-84
2023/07/15 18:14:12;;;;;;;6.57;4.57;;;35.00;60.10;;;;;;4828193;29;20038;-85
2023/07/15 18:16:42;;;;;;;14.00;5.22;;;34.90;60.60;;;;;;4823803;29;20034;-84
2023/07/15 18:19:10;;;;;;;9.82;5.20;;;34.90;61.40;;;;;;4809183;29;20026;-84
2023/07/15 18:21:38;;;;;;;8.18;4.63;;;34.80;61.60;;;;;;4809017;29;20500;-85
2023/07/15 18:24:06;;;;;;;10.77;5.53;;;34.70;61.70;;;;;;4825168;29;20531;-85
2023/07/15 18:26:34;;;;;;;10.07;6.00;;;34.60;61.60;;;;;;4792740;29;20063;-84
2023/07/15 18:29:04;;;;;;;6.95;5.00;;;34.40;61.90;;;;;;4794135;29;20121;-84
2023/07/15 18:39:09;;;;;;;13.23;5.95;;;33.90;63.60;;;;;;4806515;29;20160;-86
2023/07/15 18:41:37;;;;;;;547.63;265.95;;;33.80;63.50;;;;;;4790939;29;20485;-83
2023/07/15 18:44:03;;;;;;;23.58;16.13;;;33.80;63.80;;;;;;4806750;29;20037;-85
2023/07/15 18:46:30;;;;;;;12.43;7.00;;;33.70;63.40;;;;;;4775690;29;20420;-86
2023/07/15 18:48:57;;;;;;;28.98;6.03;;;33.60;63.80;;;;;;4790803;29;20039;-85
2023/07/15 18:51:25;;;;;;;12.13;5.85;;;33.60;64.30;;;;;;4790832;29;20073;-84
2023/07/15 18:53:51;;;;;;;19.63;6.28;;;33.50;64.40;;;;;;4806908;29;20429;-85
2023/07/15 18:56:19;;;;;;;16.77;6.55;;;33.40;64.70;;;;;;4806780;29;20428;-85
2023/07/15 18:58:45;;;;;;;10.35;5.78;;;33.30;65.00;;;;;;4806441;29;20030;-84
2023/07/15 19:01:12;;;;;;;12.20;6.00;;;33.20;65.10;;;;;;4807798;29;20066;-85
2023/07/15 19:03:38;;;;;;;11.48;6.07;;;33.20;65.30;;;;;;4792480;29;20102;-84
2023/07/15 19:06:04;;;;;;;11.73;6.25;;;33.00;65.70;;;;;;4809021;29;20524;-85
2023/07/15 19:08:31;;;;;;;16.08;5.82;;;32.90;65.90;;;;;;4807386;29;20030;-85
2023/07/15 19:10:58;;;;;;;14.48;10.40;;;32.90;66.40;;;;;;4799011;29;20027;-84
2023/07/15 19:13:26;;;;;;;58.50;9.68;;;32.90;66.60;;;;;;4792513;29;20385;-83
2023/07/15 19:15:54;;;;;;;15.27;6.45;;;32.70;66.80;;;;;;4808894;29;20116;-84
2023/07/15 19:18:20;;;;;;;7.82;5.80;;;32.70;67.10;;;;;;4790574;29;20143;-84
2023/07/15 19:20:46;;;;;;;9.80;6.75;;;32.60;67.10;;;;;;4804684;29;20034;-84
2023/07/15 19:23:14;;;;;;;10.25;6.35;;;32.50;67.50;;;;;;4829517;29;20033;-84
2023/07/15 19:25:40;;;;;;;10.35;5.85;;;32.40;67.40;;;;;;4796218;29;20042;-84
2023/07/15 19:28:07;;;;;;;11.90;6.45;;;32.40;67.60;;;;;;4828546;29;20492;-85
2023/07/15 19:30:33;;;;;;;11.32;6.05;;;32.40;67.90;;;;;;4812750;29;20042;-84
2023/07/15 19:32:59;;;;;;;;;;;32.30;68.10;;;;;;4829308;29;20037;-84
2023/07/15 19:35:25;;;;;;;13.50;6.85;;;32.30;68.20;;;;;;4829388;29;19917;-84
2023/07/15 19:37:50;;;;;;;13.18;6.57;;;32.20;68.40;;;;;;4828164;29;20054;-84
2023/07/15 19:40:16;;;;;;;12.60;7.72;;;32.10;68.80;;;;;;4828822;29;20492;-84
2023/07/15 19:42:42;;;;;;;16.38;6.53;;;32.10;69.00;;;;;;4826467;29;20492;-85
2023/07/15 19:45:08;;;;;;;15.20;7.18;;;32.00;69.20;;;;;;4810170;29;20068;-84
2023/07/15 19:47:34;;;;;;;11.95;7.55;;;32.00;69.40;;;;;;4811815;29;20042;-84
2023/07/15 19:50:00;;;;;;;11.77;7.72;;;31.90;69.80;;;;;;4811088;29;20058;-84
2023/07/15 19:52:26;;;;;;;14.20;7.10;;;31.80;70.30;;;;;;4827916;29;20038;-84
2023/07/15 19:54:52;;;;;;;13.60;8.88;;;31.70;70.80;;;;;;4826949;29;20042;-85
2023/07/15 19:57:18;;;;;;;14.60;9.30;;;31.70;70.90;;;;;;4810945;29;20117;-84
2023/07/15 19:59:44;;;;;;;13.57;8.43;;;31.70;70.90;;;;;;4829280;29;20102;-84
2023/07/15 20:02:10;;;;;;;15.45;9.13;;;31.60;70.90;;;;;;4812304;29;20034;-84
2023/07/15 20:04:35;;;;;;;16.48;8.43;;;31.60;70.90;;;;;;4828680;29;20500;-85
2023/07/15 20:07:02;;;;;;;16.50;9.50;;;31.50;71.10;;;;;;4828242;29;20041;-84
2023/07/15 20:09:28;;;;;;;;;;;31.50;71.60;;;;;;4812160;29;20054;-84
2023/07/15 20:11:54;;;;;;;40.25;10.20;;;31.40;71.80;;;;;;4811948;29;20354;-84
2023/07/15 20:14:20;;;;;;;11.98;10.13;;;31.30;71.80;;;;;;4828975;29;20058;-85
2023/07/15 20:16:47;;;;;;;16.70;9.70;;;31.30;71.90;;;;;;4827940;29;20049;-85
2023/07/15 20:19:13;;;;;;;19.00;10.85;;;31.30;72.30;;;;;;4830818;29;20037;-84
2023/07/15 20:21:39;;;;;;;32.75;12.73;;;31.20;72.70;;;;;;4830367;29;20054;-84
2023/07/15 20:24:05;;;;;;;18.30;11.40;;;31.20;73.00;;;;;;4813158;29;20087;-84
2023/07/15 20:26:31;;;;;;;12.57;10.80;;;31.10;73.10;;;;;;4830108;29;20038;-84
2023/07/15 20:28:57;;;;;;;46.58;14.68;;;31.10;73.20;;;;;;4830945;29;20099;-84
2023/07/15 20:31:23;;;;;;;18.63;11.20;;;31.00;73.30;;;;;;4813248;29;20499;-84
2023/07/15 20:33:49;;;;;;;21.10;11.70;;;31.00;73.40;;;;;;4812792;29;20442;-84
2023/07/15 20:36:15;;;;;;;71.05;15.45;;;30.90;73.40;;;;;;4813493;29;20034;-84
2023/07/15 20:38:41;;;;;;;38.30;13.38;;;30.90;73.80;;;;;;4829784;29;20461;-84
2023/07/15 20:41:07;;;;;;;20.77;11.77;;;30.80;74.10;;;;;;4829902;29;20038;-84
2023/07/15 20:43:35;;;;;;;32.55;13.70;;;30.80;74.20;;;;;;4813279;29;20026;-84
2023/07/15 20:46:02;;;;;;;19.17;12.30;;;30.80;74.50;;;;;;4827453;29;20133;-84
2023/07/15 20:48:28;;;;;;;20.70;13.40;;;30.70;75.80;;;;;;4797009;29;20117;-84
2023/07/15 20:50:54;;;;;;;19.10;12.30;;;30.70;75.00;;;;;;4813262;29;20060;-84
2023/07/15 20:53:19;;;;;;;16.02;12.15;;;30.70;75.10;;;;;;4814768;29;20034;-84
2023/07/15 20:55:45;;;;;;;18.00;11.88;;;30.60;75.20;;;;;;4813837;29;20098;-84
2023/07/15 20:58:11;;;;;;;17.00;10.82;;;30.50;75.50;;;;;;4814208;29;20038;-84
2023/07/15 21:00:37;;;;;;;21.65;12.52;;;30.50;75.60;;;;;;4814259;29;20026;-84
2023/07/15 21:03:03;;;;;;;17.38;12.43;;;30.40;75.90;;;;;;4799841;29;20485;-84
2023/07/15 21:05:29;;;;;;;;;;;30.40;76.40;;;;;;4815885;29;20057;-84
2023/07/15 21:07:55;;;;;;;21.48;12.60;;;30.30;76.70;;;;;;4799619;29;20003;-84
2023/07/15 21:10:21;;;;;;;17.70;12.02;;;30.30;77.80;;;;;;4815013;29;20411;-84
2023/07/15 21:12:47;;;;;;;19.70;13.10;;;30.30;78.20;;;;;;4832119;29;20056;-84
2023/07/15 21:15:13;;;;;;;18.67;13.18;;;30.20;77.50;;;;;;4815237;29;20034;-84
2023/07/15 21:17:39;;;;;;;23.42;14.98;;;30.20;78.00;;;;;;4814351;29;20027;-84
2023/07/15 21:20:05;;;;;;;18.60;13.25;;;30.10;78.10;;;;;;4829029;29;20117;-84
2023/07/15 21:22:31;;;;;;;22.48;13.57;;;30.20;78.30;;;;;;4827180;29;20038;-84
2023/07/15 21:24:57;;;;;;;17.45;13.20;;;30.10;78.40;;;;;;4811977;29;20026;-84
2023/07/15 21:27:23;;;;;;;16.45;12.77;;;30.10;78.60;;;;;;4811550;29;20407;-84
2023/07/15 21:29:49;;;;;;;23.60;13.02;;;30.10;78.90;;;;;;4829462;29;20034;-84
2023/07/15 21:32:14;;;;;;;19.30;12.20;;;30.00;79.30;;;;;;4829155;29;20065;-84
2023/07/15 21:34:40;;;;;;;19.40;14.30;;;30.00;79.60;;;;;;4828896;29;20314;-84
2023/07/15 21:37:06;;;;;;;19.52;14.63;;;29.90;79.90;;;;;;4810294;29;20046;-84
2023/07/15 21:39:32;;;;;;;21.27;14.15;;;29.90;80.20;;;;;;4812810;29;20121;-83
2023/07/15 21:41:58;;;;;;;18.77;15.30;;;29.80;80.40;;;;;;4829144;29;20030;-84
2023/07/15 21:44:24;;;;;;;22.07;13.77;;;29.80;81.00;;;;;;4799150;29;20152;-81
2023/07/15 21:46:50;;;;;;;22.27;14.83;;;29.70;81.40;;;;;;4797177;29;20287;-82
2023/07/15 21:49:17;;;;;;;15.70;13.45;;;29.70;82.00;;;;;;4831093;29;20038;-82
2023/07/15 21:51:43;;;;;;;20.23;12.20;;;29.60;82.50;;;;;;4829825;29;20070;-83
2023/07/15 21:54:09;;;;;;;21.85;14.57;;;29.60;82.70;;;;;;4829584;29;20039;-83
2023/07/15 21:56:35;;;;;;;22.57;14.03;;;29.60;83.20;;;;;;4809269;29;20030;-87
2023/07/15 21:59:01;;;;;;;21.30;13.38;;;29.60;83.80;;;;;;4824868;29;20455;-83
2023/07/15 22:01:27;;;;;;;16.38;12.02;;;29.50;83.80;;;;;;4831722;29;20438;-84
2023/07/15 22:03:53;;;;;;;16.80;12.90;;;29.50;84.20;;;;;;4815298;29;20561;-84
2023/07/15 22:06:18;;;;;;;18.23;12.63;;;29.40;84.70;;;;;;4833017;29;20280;-84
2023/07/15 22:08:44;;;;;;;18.67;12.73;;;29.30;85.20;;;;;;4815075;29;20035;-84
2023/07/15 22:11:10;;;;;;;17.85;12.30;;;29.20;85.40;;;;;;4815073;29;20082;-84
2023/07/15 22:13:36;;;;;;;16.98;12.52;;;29.20;85.90;;;;;;4814468;29;20091;-84
2023/07/15 22:16:02;;;;;;;16.42;11.82;;;29.10;86.30;;;;;;4788321;29;20045;-85
2023/07/15 22:18:28;;;;;;;18.83;12.80;;;29.10;86.10;;;;;;4812679;29;20038;-84
2023/07/15 22:20:54;;;;;;;18.83;13.35;;;29.00;86.70;;;;;;4815900;29;20058;-85
2023/07/15 22:23:19;;;;;;;17.95;12.45;;;29.00;86.90;;;;;;4827022;29;20034;-84
2023/07/15 22:25:46;;;;;;;12.37;11.07;;;29.00;86.40;;;;;;4809215;29;20038;-84
2023/07/15 22:28:12;;;;;;;;;;;29.00;86.10;;;;;;4809642;29;20121;-84
2023/07/15 22:30:38;;;;;;;14.20;10.93;;;28.90;85.70;;;;;;4825655;29;20012;-84
2023/07/15 22:33:04;;;;;;;12.93;11.30;;;28.90;86.10;;;;;;4825637;29;20030;-84
2023/07/15 22:35:29;;;;;;;14.93;11.10;;;28.80;86.10;;;;;;4825258;29;20069;-84
2023/07/15 22:37:55;;;;;;;13.50;10.17;;;28.80;86.20;;;;;;4809147;29;20041;-84
2023/07/15 22:40:21;;;;;;;16.63;10.00;;;28.80;86.00;;;;;;4824308;29;20297;-84
2023/07/15 22:42:47;;;;;;;11.73;9.88;;;28.80;85.60;;;;;;4825449;29;20055;-84
2023/07/15 22:45:13;;;;;;;16.50;9.23;;;28.70;84.80;;;;;;4825375;29;20031;-85
2023/07/15 22:47:39;;;;;;;16.40;9.13;;;28.60;84.20;;;;;;4825142;29;20062;-85
2023/07/15 22:50:05;;;;;;;11.10;9.93;;;28.60;84.20;;;;;;4808758;29;20042;-84
2023/07/15 22:52:31;;;;;;;14.73;10.43;;;28.60;84.70;;;;;;4825470;29;20115;-85
2023/07/15 22:54:57;;;;;;;10.35;8.18;;;28.60;84.70;;;;;;4825892;29;20472;-84
2023/07/15 22:57:23;;;;;;;12.00;7.80;;;28.50;83.70;;;;;;4809147;29;20034;-84
2023/07/15 22:59:51;;;;;;;12.07;7.23;;;28.50;82.80;;;;;;4809232;29;20504;-84
2023/07/15 23:02:16;;;;;;;11.48;6.40;;;28.50;82.00;;;;;;4808898;29;20026;-84
